createdAt,value
2023-10-01T05:30:31.882Z,5.65
2023-10-01T05:33:36.756Z,6.53
2023-10-01T05:36:39.020Z,4.75
2023-10-01T05:40:06.442Z,6.05
2023-10-01T05:43:16.070Z,5.63
2023-10-01T05:46:18.823Z,3.85
2023-10-01T05:49:20.601Z,5.03
2023-10-01T05:52:22.297Z,6.70
2023-10-01T05:55:25.842Z,5.03
2023-10-01T05:58:27.694Z,4.53
2023-10-01T06:01:29.390Z,4.90
2023-10-01T06:04:31.046Z,4.95
2023-10-01T06:07:32.778Z,5.20
2023-10-01T06:10:37.241Z,4.85
2023-10-01T06:13:50.477Z,5.30
2023-10-01T06:16:52.079Z,4.45
2023-10-01T06:19:53.732Z,6.25
2023-10-01T06:22:56.358Z,5.15
2023-10-01T06:25:59.753Z,5.03
2023-10-01T06:29:03.632Z,4.07
2023-10-01T06:32:05.259Z,4.25
2023-10-01T06:35:07.360Z,5.20
2023-10-01T06:38:09.773Z,5.28
2023-10-01T06:41:26.615Z,6.22
2023-10-01T06:44:28.159Z,4.28
2023-10-01T06:47:29.816Z,4.40
2023-10-01T06:50:31.536Z,7.93
2023-10-01T06:53:58.953Z,6.32
2023-10-01T06:57:17.987Z,6.50
2023-10-01T07:00:23.576Z,5.72
2023-10-01T07:03:31.432Z,7.00
2023-10-01T07:06:35.179Z,4.55
2023-10-01T07:09:39.175Z,6.07
2023-10-01T07:12:40.688Z,4.38
2023-10-01T07:15:45.035Z,6.60
2023-10-01T07:18:46.837Z,6.53
2023-10-01T07:21:57.824Z,7.20
2023-10-01T07:25:04.410Z,6.32
2023-10-01T07:28:08.230Z,5.97
2023-10-01T07:31:10.030Z,4.13
2023-10-01T07:34:14.844Z,5.35
2023-10-01T07:37:32.748Z,5.15
2023-10-01T07:40:53.817Z,7.30
2023-10-01T07:43:56.387Z,6.10
2023-10-01T07:46:58.231Z,4.07
2023-10-01T07:50:03.932Z,3.95
2023-10-01T07:53:05.755Z,6.03
2023-10-01T07:56:08.484Z,5.95
2023-10-01T07:59:29.855Z,4.93
2023-10-01T08:02:51.544Z,5.00
2023-10-01T08:06:11.125Z,6.05
2023-10-01T08:09:14.076Z,8.05
2023-10-01T08:12:15.556Z,5.03
2023-10-01T08:15:30.830Z,9.85
2023-10-01T08:18:41.013Z,7.00
2023-10-01T08:21:49.677Z,4.35
2023-10-01T08:24:51.274Z,5.40
2023-10-01T08:28:24.721Z,7.25
2023-10-01T08:31:45.571Z,5.47
2023-10-01T08:35:07.761Z,4.38
2023-10-01T08:38:16.797Z,5.22
2023-10-01T08:41:33.642Z,6.50
2023-10-01T08:44:47.730Z,4.43
2023-10-01T08:47:49.788Z,6.20
2023-10-01T08:50:52.955Z,5.45
2023-10-01T08:53:55.084Z,3.83
2023-10-01T08:56:58.732Z,6.93
2023-10-01T09:00:01.644Z,4.72
2023-10-01T09:03:12.233Z,3.10
2023-10-01T09:06:33.574Z,3.90
2023-10-01T09:09:52.819Z,6.88
2023-10-01T09:13:05.034Z,3.20
2023-10-01T09:16:15.625Z,4.15
2023-10-01T09:19:36.451Z,4.88
2023-10-01T09:22:40.952Z,4.63
2023-10-01T09:25:43.873Z,4.13
2023-10-01T09:28:46.879Z,3.35
2023-10-01T09:31:53.963Z,3.55
2023-10-01T09:34:58.610Z,7.28
2023-10-01T09:38:12.348Z,3.95
2023-10-01T09:41:20.872Z,4.32
2023-10-01T09:44:23.636Z,4.43
2023-10-01T09:47:26.295Z,4.63
2023-10-01T09:50:29.118Z,4.45
2023-10-01T09:53:45.076Z,3.58
2023-10-01T09:56:48.028Z,3.15
2023-10-01T09:59:51.528Z,4.53
2023-10-01T10:02:53.248Z,4.65
2023-10-01T10:05:55.407Z,2.85
2023-10-01T10:09:04.476Z,2.78
2023-10-01T10:12:08.783Z,4.05
2023-10-01T10:15:17.746Z,4.95
2023-10-01T10:18:19.596Z,3.25
2023-10-01T10:21:21.730Z,4.05
2023-10-01T10:24:29.762Z,3.50
2023-10-01T10:27:34.416Z,3.83
2023-10-01T10:30:42.072Z,3.80
2023-10-01T10:34:20.665Z,3.25
2023-10-01T10:37:57.324Z,2.88
2023-10-01T10:41:09.728Z,3.97
2023-10-01T10:44:11.310Z,4.47
2023-10-01T10:47:13.130Z,3.05
2023-10-01T10:50:16.569Z,2.90
2023-10-01T10:53:23.148Z,3.13
2023-10-01T10:56:36.684Z,3.60
2023-10-01T10:59:38.359Z,4.00
2023-10-01T11:02:44.187Z,4.97
2023-10-01T11:05:51.836Z,4.13
2023-10-01T11:08:54.713Z,3.28
2023-10-01T11:12:20.078Z,3.97
2023-10-01T11:15:24.981Z,4.28
2023-10-01T11:18:27.796Z,2.70
2023-10-01T11:21:33.011Z,3.15
2023-10-01T11:24:38.222Z,3.00
2023-10-01T11:27:45.895Z,3.30
2023-10-01T11:30:47.542Z,2.90
2023-10-01T11:34:22.977Z,3.38
2023-10-01T11:37:29.075Z,3.30
2023-10-01T11:40:51.372Z,3.35
2023-10-01T11:44:02.175Z,3.03
2023-10-01T11:47:03.761Z,3.45
2023-10-01T11:50:09.884Z,3.20
2023-10-01T11:53:12.866Z,3.22
2023-10-01T11:56:14.350Z,3.67
2023-10-01T11:59:19.748Z,3.35
2023-10-01T12:02:26.414Z,3.03
2023-10-01T12:05:39.529Z,3.75
2023-10-01T12:08:48.647Z,2.90
2023-10-01T12:12:05.573Z,3.05
2023-10-01T12:15:26.533Z,3.63
2023-10-01T12:18:38.177Z,3.67
2023-10-01T12:21:39.873Z,3.13
2023-10-01T12:24:41.413Z,4.18
2023-10-01T12:27:43.262Z,3.22
2023-10-01T12:31:08.829Z,2.90
2023-10-01T12:34:10.354Z,3.53
2023-10-01T12:37:30.442Z,3.58
2023-10-01T12:40:36.442Z,4.47
2023-10-01T12:43:39.081Z,4.57
2023-10-01T12:46:52.811Z,3.15
2023-10-01T12:50:00.311Z,4.28
2023-10-01T12:53:20.741Z,3.25
2023-10-01T12:56:40.005Z,3.38
2023-10-01T12:59:47.587Z,4.05
2023-10-01T13:02:50.443Z,3.65
2023-10-01T13:05:53.355Z,3.75
2023-10-01T13:08:56.415Z,3.88
2023-10-01T13:12:01.137Z,3.92
2023-10-01T13:15:18.179Z,3.30
2023-10-01T13:18:20.676Z,3.58
2023-10-01T13:21:28.350Z,4.13
2023-10-01T13:24:30.079Z,3.13
2023-10-01T13:27:31.940Z,4.57
2023-10-01T13:30:57.372Z,3.63
2023-10-01T13:34:25.671Z,3.60
2023-10-01T13:37:46.337Z,4.78
2023-10-01T13:41:14.154Z,4.28
2023-10-01T13:44:34.506Z,3.50
2023-10-01T13:47:54.926Z,4.40
2023-10-01T13:51:17.317Z,3.88
2023-10-01T13:54:37.476Z,4.93
2023-10-01T13:57:57.472Z,3.45
2023-10-01T14:01:24.147Z,3.00
2023-10-01T14:04:44.429Z,4.40
2023-10-01T14:08:04.703Z,4.47
2023-10-01T14:11:06.786Z,3.80
2023-10-01T14:14:09.587Z,3.97
2023-10-01T14:17:14.675Z,4.50
2023-10-01T14:20:35.336Z,4.32
2023-10-01T14:23:45.872Z,3.25
2023-10-01T14:26:47.961Z,3.50
2023-10-01T14:30:01.918Z,3.97
2023-10-01T14:33:23.513Z,4.20
2023-10-01T14:36:27.129Z,3.45
2023-10-01T14:39:32.519Z,3.72
2023-10-01T14:42:38.162Z,4.13
2023-10-01T14:45:45.222Z,2.92
2023-10-01T14:48:47.285Z,3.10
2023-10-01T14:51:55.198Z,5.57
2023-10-01T14:55:02.768Z,5.15
2023-10-01T14:58:04.663Z,6.65
2023-10-01T15:01:09.764Z,7.95
2023-10-01T15:04:30.643Z,8.82
2023-10-01T15:07:32.977Z,8.70
2023-10-01T15:10:34.902Z,10.43
2023-10-01T15:13:39.419Z,8.90
2023-10-01T15:16:56.881Z,8.32
2023-10-01T15:20:14.242Z,8.55
2023-10-01T15:23:17.204Z,13.85
2023-10-01T15:26:22.248Z,10.32
2023-10-01T15:29:32.078Z,8.10
2023-10-01T15:32:36.662Z,8.75
2023-10-01T15:35:44.414Z,10.63
2023-10-01T15:38:51.843Z,9.50
2023-10-01T15:41:53.349Z,9.90
2023-10-01T15:45:00.407Z,10.07
2023-10-01T15:48:08.736Z,10.05
2023-10-01T15:51:10.823Z,9.13
2023-10-01T15:54:23.481Z,8.95
2023-10-01T15:57:25.019Z,10.48
2023-10-01T16:00:31.298Z,10.10
2023-10-01T16:03:33.599Z,9.43
2023-10-01T16:06:35.551Z,10.63
2023-10-01T16:09:40.408Z,9.48
2023-10-01T16:12:42.355Z,10.38
2023-10-01T16:15:48.283Z,8.93
2023-10-01T16:18:50.819Z,9.48
2023-10-01T16:21:55.414Z,9.82
2023-10-01T16:24:59.234Z,10.25
2023-10-01T16:28:04.561Z,9.68
2023-10-01T16:31:06.654Z,10.45
2023-10-01T16:34:08.248Z,11.02
2023-10-01T16:37:22.424Z,13.18
2023-10-01T16:40:26.550Z,11.20
2023-10-01T16:43:34.085Z,11.43
2023-10-01T16:46:36.941Z,12.07
2023-10-01T16:49:41.726Z,11.80
2023-10-01T16:52:43.283Z,12.77
2023-10-01T16:55:49.582Z,11.27
2023-10-01T16:58:54.577Z,10.52
2023-10-01T17:01:59.305Z,11.05
2023-10-01T17:05:08.489Z,13.43
2023-10-01T17:08:19.394Z,9.60
2023-10-01T17:11:22.788Z,13.43
2023-10-01T17:14:24.414Z,10.43
2023-10-01T17:17:28.386Z,12.32
2023-10-01T17:20:32.854Z,11.48
2023-10-01T17:23:35.037Z,12.50
2023-10-01T17:26:49.816Z,13.73
2023-10-01T17:29:52.297Z,10.55
2023-10-01T17:33:03.047Z,11.65
2023-10-01T17:36:09.922Z,11.50
2023-10-01T17:39:26.256Z,11.55
2023-10-01T17:42:28.531Z,14.95
2023-10-01T17:45:31.251Z,13.45
2023-10-01T17:48:36.759Z,11.32
2023-10-01T17:51:45.735Z,11.50
2023-10-01T17:54:51.528Z,12.48
2023-10-01T17:57:54.762Z,11.55
2023-10-01T18:00:57.200Z,11.10
2023-10-01T18:04:00.455Z,12.95
2023-10-01T18:07:02.702Z,11.85
2023-10-01T18:10:26.428Z,13.57
2023-10-01T18:13:28.319Z,14.68
2023-10-01T18:16:29.960Z,12.80
2023-10-01T18:19:35.396Z,11.10
2023-10-01T18:22:37.230Z,13.02
2023-10-01T18:25:42.045Z,13.07
2023-10-01T18:28:43.915Z,14.90
2023-10-01T18:31:49.893Z,12.68
2023-10-01T18:34:51.999Z,10.73
2023-10-01T18:37:54.136Z,13.02
2023-10-01T18:40:56.149Z,13.65
2023-10-01T18:43:59.977Z,13.00
2023-10-01T18:47:01.902Z,11.35
2023-10-01T18:50:04.246Z,11.60
2023-10-01T18:53:05.734Z,12.63
2023-10-01T18:56:10.475Z,12.65
2023-10-01T18:59:12.029Z,12.27
2023-10-01T19:02:22.744Z,12.30
2023-10-01T19:05:24.463Z,12.00
2023-10-01T19:08:30.512Z,11.73
2023-10-01T19:11:32.279Z,13.98
2023-10-01T19:14:33.855Z,12.27
2023-10-01T19:17:35.477Z,11.32
2023-10-01T19:20:37.411Z,12.45
2023-10-01T19:23:41.890Z,12.55
2023-10-01T19:26:47.232Z,11.90
2023-10-01T19:29:48.994Z,12.10
2023-10-01T19:32:51.731Z,13.38
2023-10-01T19:35:54.099Z,11.23
2023-10-01T19:38:55.711Z,13.52
2023-10-01T19:42:03.460Z,12.45
2023-10-01T19:45:20.964Z,12.30
2023-10-01T19:48:23.346Z,11.70
2023-10-01T19:51:25.988Z,11.65
2023-10-01T19:54:31.620Z,12.63
2023-10-01T19:57:39.683Z,10.52
2023-10-01T20:00:50.878Z,13.27
2023-10-01T20:03:56.843Z,11.85
2023-10-01T20:07:00.697Z,14.05
2023-10-01T20:10:12.717Z,11.32
2023-10-01T20:13:14.363Z,12.32
2023-10-01T20:16:16.280Z,11.85
2023-10-01T20:19:25.359Z,8.98
2023-10-01T20:22:28.783Z,12.18
2023-10-01T20:25:36.001Z,12.38
2023-10-01T20:28:37.869Z,15.18
2023-10-01T20:31:40.414Z,13.52
2023-10-01T20:34:45.190Z,17.10
2023-10-01T20:37:48.191Z,10.20
2023-10-01T20:40:54.172Z,11.20
2023-10-01T20:43:58.809Z,12.60
2023-10-01T20:47:17.225Z,10.52
2023-10-01T20:50:46.413Z,12.13
2023-10-01T20:53:48.204Z,10.40
2023-10-01T20:56:53.663Z,11.23
2023-10-01T20:59:56.175Z,9.65
2023-10-01T21:03:01.548Z,8.93
2023-10-01T21:06:05.472Z,9.10
2023-10-01T21:09:20.175Z,9.60
2023-10-01T21:12:22.134Z,8.77
2023-10-01T21:15:23.614Z,10.65
2023-10-01T21:18:30.381Z,10.98
2023-10-01T21:21:33.076Z,10.50
2023-10-01T21:24:35.416Z,10.68
2023-10-01T21:27:38.465Z,10.32
2023-10-01T21:30:46.547Z,8.90
2023-10-01T21:33:49.092Z,9.80
2023-10-01T21:36:50.806Z,11.70
2023-10-01T21:39:58.466Z,8.93
2023-10-01T21:43:00.061Z,10.70
2023-10-01T21:46:05.357Z,10.65
2023-10-01T21:49:13.434Z,9.70
2023-10-01T21:52:18.538Z,8.00
2023-10-01T21:55:20.562Z,9.05
2023-10-01T21:58:22.090Z,9.93
2023-10-01T22:01:45.305Z,11.23
2023-10-01T22:04:51.922Z,8.05
2023-10-01T22:07:56.112Z,8.95
2023-10-01T22:10:57.863Z,10.18
2023-10-01T22:14:08.856Z,9.65
